createdAt,value
2023-03-18T00:00:28.881Z,44.58
2023-03-18T00:05:34.647Z,44.44
2023-03-18T00:10:38.135Z,44.82
2023-03-18T00:15:41.592Z,44.84
2023-03-18T00:20:46.482Z,44.41
2023-03-18T00:25:50.324Z,44.98
2023-03-18T00:30:54.129Z,44.89
2023-03-18T00:35:59.986Z,45.13
2023-03-18T00:41:11.197Z,44.46
2023-03-18T00:46:16.853Z,44.60
2023-03-18T00:51:23.422Z,44.94
2023-03-18T00:56:28.826Z,44.95
2023-03-18T01:01:32.327Z,44.82
2023-03-18T01:06:38.843Z,44.87
2023-03-18T01:11:42.286Z,44.28
2023-03-18T01:16:47.036Z,44.42
2023-03-18T01:21:51.841Z,44.22
2023-03-18T01:26:55.513Z,44.30
2023-03-18T01:31:58.940Z,44.70
2023-03-18T01:37:04.078Z,44.89
2023-03-18T01:42:07.700Z,43.92
2023-03-18T01:47:11.899Z,44.75
2023-03-18T01:52:20.652Z,44.22
2023-03-18T01:57:25.003Z,44.17
2023-03-18T02:02:29.265Z,44.08
2023-03-18T02:07:36.430Z,44.19
2023-03-18T02:12:41.512Z,44.23
2023-03-18T02:17:49.301Z,44.24
2023-03-18T02:22:59.171Z,44.72
2023-03-18T02:28:08.014Z,44.69
2023-03-18T02:33:12.673Z,44.12
2023-03-18T02:38:16.540Z,44.02
2023-03-18T02:43:24.736Z,44.20
2023-03-18T02:48:33.560Z,44.89
2023-03-18T02:53:37.556Z,44.43
2023-03-18T02:58:43.713Z,44.04
2023-03-18T03:03:47.087Z,44.16
2023-03-18T03:08:50.570Z,44.48
2023-03-18T03:13:55.875Z,44.11
2023-03-18T03:18:59.656Z,44.79
2023-03-18T03:24:04.248Z,44.46
2023-03-18T03:29:09.156Z,44.74
2023-03-18T03:34:12.787Z,44.54
2023-03-18T03:39:16.314Z,44.74
2023-03-18T03:44:21.346Z,45.06
2023-03-18T03:49:24.859Z,45.08
2023-03-18T03:54:28.218Z,45.31
2023-03-18T03:59:33.063Z,44.58
2023-03-18T04:04:37.819Z,40.38
2023-03-18T04:09:41.315Z,36.92
2023-03-18T04:14:48.012Z,40.13
2023-03-18T04:19:51.458Z,42.61
2023-03-18T04:24:54.929Z,43.64
2023-03-18T04:29:59.817Z,43.93
2023-03-18T04:35:03.524Z,44.11
2023-03-18T04:40:08.178Z,43.85
2023-03-18T04:45:14.366Z,43.92
2023-03-18T04:50:18.041Z,44.43
2023-03-18T04:55:22.110Z,44.64
2023-03-18T05:00:27.979Z,39.75
2023-03-18T05:05:32.885Z,34.32
2023-03-18T05:10:36.459Z,35.74
2023-03-18T05:15:41.446Z,27.99
2023-03-18T05:20:44.946Z,22.64
2023-03-18T05:25:50.897Z,20.08
2023-03-18T05:30:55.883Z,18.57
2023-03-18T05:35:59.110Z,18.03
2023-03-18T05:41:02.616Z,15.95
2023-03-18T05:46:07.519Z,15.23
2023-03-18T05:51:11.342Z,15.47
2023-03-18T05:56:15.626Z,14.29
2023-03-18T06:01:22.062Z,17.56
2023-03-18T06:06:25.474Z,19.96
2023-03-18T06:11:29.575Z,22.52
2023-03-18T06:16:35.468Z,19.37
2023-03-18T06:21:39.023Z,15.82
2023-03-18T06:26:42.761Z,13.14
2023-03-18T06:31:47.644Z,11.99
2023-03-18T06:36:51.137Z,10.70
2023-03-18T06:41:55.258Z,9.61
2023-03-18T06:46:59.982Z,10.61
2023-03-18T06:52:03.884Z,9.42
2023-03-18T06:57:07.838Z,8.10
2023-03-18T07:02:13.188Z,8.41
2023-03-18T07:07:16.870Z,8.18
2023-03-18T07:12:20.320Z,7.22
2023-03-18T07:17:25.349Z,7.21
2023-03-18T07:22:29.329Z,6.95
2023-03-18T07:27:34.942Z,7.26
2023-03-18T07:32:39.848Z,7.38
2023-03-18T07:37:43.707Z,6.36
2023-03-18T07:42:47.161Z,6.92
2023-03-18T07:47:52.088Z,6.79
2023-03-18T07:52:55.486Z,7.03
2023-03-18T07:57:58.850Z,7.56
2023-03-18T08:03:04.065Z,6.68
2023-03-18T08:08:07.865Z,7.82
2023-03-18T08:13:11.409Z,6.75
2023-03-18T08:18:16.390Z,6.89
2023-03-18T08:23:20.158Z,6.60
2023-03-18T08:28:23.842Z,6.72
2023-03-18T08:33:29.415Z,6.88
2023-03-18T08:38:32.968Z,7.13
2023-03-18T08:43:38.879Z,8.86
2023-03-18T08:48:44.035Z,8.40
2023-03-18T08:53:47.489Z,10.01
2023-03-18T08:58:51.297Z,11.66
2023-03-18T09:03:58.114Z,13.23
2023-03-18T09:09:01.543Z,14.64
2023-03-18T09:14:04.898Z,15.61
2023-03-18T09:19:09.834Z,16.13
2023-03-18T09:24:13.363Z,16.63
2023-03-18T09:29:16.927Z,17.55
2023-03-18T09:34:21.913Z,17.84
2023-03-18T09:39:25.012Z,18.21
2023-03-18T09:44:33.818Z,18.57
2023-03-18T09:49:48.466Z,18.16
2023-03-18T09:54:58.922Z,17.82
2023-03-18T10:00:09.329Z,17.56
2023-03-18T10:05:19.362Z,16.86
2023-03-18T10:10:27.357Z,17.79
2023-03-18T10:15:37.435Z,17.19
2023-03-18T10:20:54.052Z,17.16
2023-03-18T10:26:02.996Z,16.01
2023-03-18T10:31:18.601Z,16.60
2023-03-18T10:36:29.685Z,17.62
2023-03-18T10:41:36.248Z,17.46
2023-03-18T10:46:39.901Z,17.71
2023-03-18T10:51:51.289Z,18.33
2023-03-18T10:56:54.750Z,18.04
2023-03-18T11:02:04.688Z,17.72
2023-03-18T11:07:17.372Z,18.28
2023-03-18T11:12:26.055Z,17.17
2023-03-18T11:17:33.437Z,17.97
2023-03-18T11:22:39.170Z,18.73
2023-03-18T11:27:44.355Z,18.46
2023-03-18T11:32:56.866Z,17.78
2023-03-18T11:38:04.493Z,19.34
2023-03-18T11:43:21.664Z,18.59
2023-03-18T11:48:31.597Z,18.83
2023-03-18T11:53:48.948Z,18.86
2023-03-18T11:59:09.680Z,18.33
2023-03-18T12:04:45.311Z,18.80
2023-03-18T12:09:57.127Z,18.79
2023-03-18T12:15:10.290Z,18.53
2023-03-18T12:20:33.879Z,18.24
2023-03-18T12:26:08.662Z,18.34
2023-03-18T12:31:42.933Z,18.24
2023-03-18T12:37:02.582Z,18.80
2023-03-18T12:42:13.566Z,18.73
2023-03-18T12:47:22.694Z,18.82
2023-03-18T12:52:32.909Z,18.86
2023-03-18T12:57:45.419Z,19.51
2023-03-18T13:02:57.374Z,19.80
2023-03-18T13:08:28.974Z,19.52
2023-03-18T13:13:37.353Z,19.69
2023-03-18T13:18:44.516Z,20.08
2023-03-18T13:24:17.985Z,20.43
2023-03-18T13:29:35.243Z,19.36
2023-03-18T13:35:07.023Z,20.01
2023-03-18T13:40:29.504Z,20.22
2023-03-18T13:45:39.309Z,19.92
2023-03-18T13:50:44.506Z,20.31
2023-03-18T13:55:50.657Z,20.58
2023-03-18T14:01:15.550Z,20.56
2023-03-18T14:06:26.664Z,21.02
2023-03-18T14:11:50.414Z,21.15
2023-03-18T14:16:58.099Z,21.09
2023-03-18T14:22:09.697Z,21.22
2023-03-18T14:27:20.565Z,21.63
2023-03-18T14:32:41.133Z,21.33
2023-03-18T14:38:03.763Z,21.54
2023-03-18T14:43:11.736Z,22.08
2023-03-18T14:48:21.644Z,21.83
2023-03-18T14:53:30.640Z,21.80
2023-03-18T14:58:36.013Z,22.09
2023-03-18T15:03:44.901Z,22.74
2023-03-18T15:08:54.184Z,22.98
2023-03-18T15:14:00.245Z,23.34
2023-03-18T15:19:05.422Z,22.74
2023-03-18T15:24:09.628Z,23.43
2023-03-18T15:29:26.926Z,23.60
2023-03-18T15:34:34.485Z,23.36
2023-03-18T15:39:40.037Z,23.20
2023-03-18T15:44:45.897Z,23.77
2023-03-18T15:49:55.884Z,23.71
2023-03-18T15:54:59.430Z,23.96
2023-03-18T16:00:04.617Z,24.44
2023-03-18T16:05:17.364Z,24.48
2023-03-18T16:10:23.171Z,24.33
2023-03-18T16:15:28.144Z,24.14
2023-03-18T16:20:33.476Z,23.81
2023-03-18T16:25:37.030Z,23.78
2023-03-18T16:30:41.652Z,24.14
2023-03-18T16:35:47.643Z,23.59
2023-03-18T16:40:53.870Z,23.77
2023-03-18T16:46:00.761Z,23.96
2023-03-18T16:51:06.108Z,23.87
2023-03-18T16:56:16.978Z,25.11
2023-03-18T17:01:21.209Z,26.51
2023-03-18T17:06:26.636Z,26.49
2023-03-18T17:11:29.982Z,27.18
2023-03-18T17:16:34.212Z,25.95
2023-03-18T17:21:39.618Z,25.76
2023-03-18T17:26:43.382Z,26.14
2023-03-18T17:31:46.738Z,25.98
2023-03-18T17:36:51.568Z,25.68
2023-03-18T17:41:55.262Z,25.82
2023-03-18T17:46:58.734Z,25.46
2023-03-18T17:52:03.622Z,25.59
2023-03-18T17:57:07.375Z,25.45
2023-03-18T18:02:14.861Z,25.45
2023-03-18T18:07:21.911Z,25.41
2023-03-18T18:12:26.200Z,25.13
2023-03-18T18:17:29.756Z,25.22
2023-03-18T18:22:34.691Z,25.70
2023-03-18T18:27:37.886Z,25.82
2023-03-18T18:32:41.533Z,26.15
2023-03-18T18:37:47.659Z,26.21
2023-03-18T18:42:51.077Z,26.77
2023-03-18T18:47:54.815Z,27.11
2023-03-18T18:53:00.741Z,26.84
2023-03-18T18:58:04.482Z,27.30
2023-03-18T19:03:14.375Z,27.92
2023-03-18T19:08:25.421Z,28.98
2023-03-18T19:13:31.030Z,28.90
2023-03-18T19:18:39.017Z,29.81
2023-03-18T19:23:44.014Z,30.15
2023-03-18T19:29:01.546Z,29.44
2023-03-18T19:34:15.369Z,29.64
2023-03-18T19:39:22.126Z,30.44
2023-03-18T19:44:26.862Z,30.65
2023-03-18T19:49:33.806Z,30.68
2023-03-18T19:54:38.891Z,31.84
2023-03-18T19:59:42.370Z,32.61
2023-03-18T20:04:45.720Z,32.06
2023-03-18T20:09:50.895Z,32.79
2023-03-18T20:14:54.462Z,32.51
2023-03-18T20:19:58.801Z,33.06
2023-03-18T20:25:05.130Z,33.09
2023-03-18T20:30:23.286Z,33.38
2023-03-18T20:35:29.016Z,33.09
2023-03-18T20:40:34.316Z,33.13
2023-03-18T20:45:37.697Z,33.33
2023-03-18T20:50:41.370Z,34.01
2023-03-18T20:55:47.039Z,33.64
2023-03-18T21:00:50.891Z,34.43
2023-03-18T21:05:56.871Z,34.26
2023-03-18T21:11:02.490Z,35.16
2023-03-18T21:16:08.188Z,34.73
2023-03-18T21:21:20.642Z,34.84
2023-03-18T21:26:25.511Z,35.35
2023-03-18T21:31:31.413Z,35.30
2023-03-18T21:36:34.821Z,35.38
2023-03-18T21:41:39.759Z,35.17
2023-03-18T21:46:42.859Z,34.72
2023-03-18T21:51:46.756Z,35.52
2023-03-18T21:56:51.548Z,35.95
2023-03-18T22:01:54.992Z,35.88
2023-03-18T22:06:58.529Z,36.08
2023-03-18T22:12:03.366Z,36.18
2023-03-18T22:17:12.088Z,36.56
2023-03-18T22:22:17.331Z,36.20
2023-03-18T22:27:24.290Z,36.28
2023-03-18T22:32:38.698Z,37.29
2023-03-18T22:37:42.603Z,36.16
2023-03-18T22:42:48.640Z,36.53
2023-03-18T22:47:52.731Z,37.19
2023-03-18T22:53:01.263Z,37.07
2023-03-18T22:58:06.750Z,37.06
2023-03-18T23:03:13.019Z,37.56
2023-03-18T23:08:17.425Z,37.00
2023-03-18T23:13:28.153Z,37.96
2023-03-18T23:18:31.645Z,37.48
2023-03-18T23:23:35.060Z,37.28
2023-03-18T23:28:44.855Z,37.51
2023-03-18T23:33:48.826Z,38.24
2023-03-18T23:38:52.561Z,37.82
2023-03-18T23:43:57.392Z,38.23
2023-03-18T23:49:00.725Z,37.73
2023-03-18T23:54:04.109Z,38.13
2023-03-18T23:59:08.984Z,38.75
